createdAt,value
2022-10-29T00:00:41.633Z,101767.56
2022-10-29T00:03:08.823Z,101769.94
2022-10-29T00:05:35.819Z,101766.34
2022-10-29T00:08:03.089Z,101752.00
2022-10-29T00:10:30.033Z,101758.16
2022-10-29T00:13:00.637Z,101766.03
2022-10-29T00:15:27.049Z,101761.69
2022-10-29T00:17:53.619Z,101760.06
2022-10-29T00:20:21.704Z,101762.75
2022-10-29T00:22:48.225Z,101761.06
2022-10-29T00:25:14.693Z,101751.84
2022-10-29T00:27:41.097Z,101754.63
2022-10-29T00:30:08.105Z,101751.84
2022-10-29T00:32:34.559Z,101766.97
2022-10-29T00:35:00.979Z,101763.00
2022-10-29T00:37:32.041Z,101761.44
2022-10-29T00:39:58.430Z,101763.03
2022-10-29T00:42:24.861Z,101770.63
2022-10-29T00:44:51.420Z,101761.88
2022-10-29T00:47:31.885Z,101770.28
2022-10-29T00:50:04.924Z,101767.47
2022-10-29T00:52:34.092Z,101775.47
2022-10-29T00:55:05.259Z,101775.06
2022-10-29T00:57:36.847Z,101768.94
2022-10-29T01:00:04.190Z,101771.38
2022-10-29T01:02:33.463Z,101770.59
2022-10-29T01:05:01.795Z,101775.28
2022-10-29T01:07:28.984Z,101773.28
2022-10-29T01:09:55.857Z,101767.69
2022-10-29T01:12:54.788Z,101762.84
2022-10-29T01:15:32.151Z,101756.09
2022-10-29T01:18:07.631Z,101760.53
2022-10-29T01:20:52.536Z,101759.38
2022-10-29T01:23:53.185Z,101758.88
2022-10-29T01:26:44.380Z,101748.53
2022-10-29T01:29:39.483Z,101742.53
2022-10-29T01:32:15.959Z,101744.56
2022-10-29T01:35:09.762Z,101741.03
2022-10-29T01:37:52.874Z,101741.13
2022-10-29T01:40:33.155Z,101740.75
2022-10-29T01:43:09.281Z,101734.72
2022-10-29T01:45:50.722Z,101727.97
2022-10-29T01:48:21.894Z,101715.22
2022-10-29T01:50:52.490Z,101727.97
2022-10-29T01:53:19.673Z,101729.56
2022-10-29T01:55:46.213Z,101719.56
2022-10-29T01:58:13.626Z,101707.66
2022-10-29T02:00:49.279Z,101710.88
2022-10-29T02:03:39.754Z,101730.13
2022-10-29T02:06:20.830Z,101724.63
2022-10-29T02:09:24.775Z,101727.50
2022-10-29T02:11:57.351Z,101718.72
2022-10-29T02:14:33.114Z,101708.38
2022-10-29T02:17:01.619Z,101701.59
2022-10-29T02:19:33.089Z,101700.78
2022-10-29T02:21:59.665Z,101695.69
2022-10-29T02:24:26.206Z,101702.84
2022-10-29T02:26:53.087Z,101702.13
2022-10-29T02:29:20.083Z,101702.94
2022-10-29T02:31:46.846Z,101705.72
2022-10-29T02:34:13.471Z,101698.19
2022-10-29T02:36:40.054Z,101694.63
2022-10-29T02:39:06.611Z,101691.44
2022-10-29T02:41:33.334Z,101692.25
2022-10-29T02:44:01.056Z,101687.09
2022-10-29T02:46:27.685Z,101685.53
2022-10-29T02:48:54.278Z,101679.59
2022-10-29T02:51:20.927Z,101676.09
2022-10-29T02:53:47.456Z,101680.09
2022-10-29T02:56:13.950Z,101686.91
2022-10-29T02:58:42.981Z,101676.53
2022-10-29T03:01:09.387Z,101675.69
2022-10-29T03:03:35.834Z,101668.91
2022-10-29T03:06:02.299Z,101676.53
2022-10-29T03:08:28.789Z,101667.75
2022-10-29T03:10:55.853Z,101671.34
2022-10-29T03:13:22.258Z,101667.78
2022-10-29T03:15:48.772Z,101674.28
2022-10-29T03:18:15.309Z,101668.38
2022-10-29T03:20:42.951Z,101674.72
2022-10-29T03:23:09.344Z,101671.50
2022-10-29T03:25:35.799Z,101662.31
2022-10-29T03:28:02.212Z,101659.94
2022-10-29T03:30:28.666Z,101661.09
2022-10-29T03:32:55.486Z,101662.69
2022-10-29T03:35:22.374Z,101654.69
2022-10-29T03:37:52.576Z,101656.31
2022-10-29T03:40:19.912Z,101663.09
2022-10-29T03:42:58.681Z,101664.69
2022-10-29T03:45:25.624Z,101665.22
2022-10-29T03:47:52.158Z,101664.06
2022-10-29T03:50:18.728Z,101663.28
2022-10-29T03:52:45.127Z,101663.69
2022-10-29T03:55:11.558Z,101664.47
2022-10-29T03:57:37.982Z,101659.25
2022-10-29T04:00:10.298Z,101660.06
2022-10-29T04:02:36.835Z,101662.44
2022-10-29T04:05:03.481Z,101665.66
2022-10-29T04:07:29.852Z,101661.72
2022-10-29T04:09:56.289Z,101669.28
2022-10-29T04:12:22.771Z,101666.88
2022-10-29T04:17:40.761Z,101663.75
2022-10-29T04:20:14.522Z,101660.94
2022-10-29T04:28:50.717Z,101630.63
2022-10-29T04:31:18.160Z,101625.50
2022-10-29T04:33:44.712Z,101627.91
2022-10-29T04:36:11.210Z,101630.31
2022-10-29T04:38:38.270Z,101640.34
2022-10-29T04:41:05.232Z,101641.22
2022-10-29T04:43:31.962Z,101637.66
2022-10-29T04:46:01.421Z,101638.81
2022-10-29T04:48:28.413Z,101634.81
2022-10-29T04:50:55.126Z,101639.22
2022-10-29T04:53:21.889Z,101638.44
2022-10-29T04:55:48.696Z,101636.53
2022-10-29T04:58:17.934Z,101639.75
2022-10-29T05:00:44.749Z,101627.38
2022-10-29T05:03:11.498Z,101630.97
2022-10-29T05:05:39.143Z,101621.75
2022-10-29T05:08:06.613Z,101614.16
2022-10-29T05:10:38.369Z,101609.75
2022-10-29T05:13:17.691Z,101605.78
2022-10-29T05:15:53.046Z,101607.38
2022-10-29T05:18:22.025Z,101596.56
2022-10-29T05:20:48.708Z,101595.78
2022-10-29T05:23:15.197Z,101598.16
2022-10-29T05:25:42.029Z,101588.63
2022-10-29T05:28:18.921Z,101580.25
2022-10-29T05:30:46.074Z,101582.59
2022-10-29T05:33:16.040Z,101575.84
2022-10-29T05:35:42.538Z,101570.25
2022-10-29T05:38:10.264Z,101584.22
2022-10-29T05:40:36.689Z,101585.47
2022-10-29T05:43:03.099Z,101597.84
2022-10-29T05:45:29.637Z,101592.66
2022-10-29T05:48:01.008Z,101586.66
2022-10-29T05:50:28.820Z,101571.44
2022-10-29T05:53:00.126Z,101584.22
2022-10-29T05:55:27.504Z,101590.56
2022-10-29T05:57:58.021Z,101582.66
2022-10-29T06:00:26.245Z,101583.09
2022-10-29T06:02:52.939Z,101590.69
2022-10-29T06:05:25.875Z,101581.91
2022-10-29T06:07:57.276Z,101584.28
2022-10-29T06:10:47.880Z,101585.84
2022-10-29T06:13:19.359Z,101581.44
2022-10-29T06:15:47.193Z,101579.44
2022-10-29T06:18:14.102Z,101579.81
2022-10-29T06:21:00.825Z,101576.59
2022-10-29T06:23:28.619Z,101581.78
2022-10-29T06:26:03.488Z,101581.78
2022-10-29T06:28:33.654Z,101594.91
2022-10-29T06:31:01.615Z,101588.91
2022-10-29T06:33:28.060Z,101594.91
2022-10-29T06:35:58.912Z,101584.50
2022-10-29T06:38:25.318Z,101587.28
2022-10-29T06:40:53.678Z,101585.66
2022-10-29T06:43:20.148Z,101585.22
2022-10-29T06:45:46.555Z,101584.81
2022-10-29T06:48:14.556Z,101593.59
2022-10-29T06:50:42.987Z,101589.59
2022-10-29T06:53:12.615Z,101578.81
2022-10-29T06:55:39.298Z,101588.75
2022-10-29T06:58:14.385Z,101594.34
2022-10-29T07:00:42.455Z,101581.53
2022-10-29T07:03:12.386Z,101584.31
2022-10-29T07:05:38.813Z,101580.69
2022-10-29T07:08:05.439Z,101582.22
2022-10-29T07:10:33.451Z,101581.38
2022-10-29T07:13:00.697Z,101580.56
2022-10-29T07:15:30.520Z,101578.09
2022-10-29T07:18:02.458Z,101580.47
2022-10-29T07:20:30.934Z,101586.84
2022-10-29T07:22:57.883Z,101591.59
2022-10-29T07:25:24.408Z,101593.97
2022-10-29T07:27:50.988Z,101592.00
2022-10-29T07:30:17.764Z,101578.03
2022-10-29T07:32:44.566Z,101581.16
2022-10-29T07:35:11.202Z,101596.59
2022-10-29T07:37:38.272Z,101591.41
2022-10-29T07:40:05.821Z,101597.28
2022-10-29T07:42:32.448Z,101597.63
2022-10-29T07:44:59.080Z,101593.56
2022-10-29T07:47:25.672Z,101599.81
2022-10-29T07:49:52.310Z,101598.47
2022-10-29T07:52:18.869Z,101603.63
2022-10-29T07:54:45.651Z,101607.50
2022-10-29T07:57:12.496Z,101607.41
2022-10-29T07:59:39.124Z,101611.31
2022-10-29T08:02:05.881Z,101614.81
2022-10-29T08:04:32.681Z,101611.53
2022-10-29T08:06:59.360Z,101610.19
2022-10-29T08:09:26.041Z,101610.88
2022-10-29T08:11:52.769Z,101607.53
2022-10-29T08:14:22.627Z,101604.63
2022-10-29T08:16:49.686Z,101604.88
2022-10-29T08:19:16.242Z,101600.34
2022-10-29T08:21:42.934Z,101598.22
2022-10-29T08:24:10.486Z,101595.31
2022-10-29T08:26:37.163Z,101588.00
2022-10-29T08:29:04.396Z,101592.19
2022-10-29T08:31:30.769Z,101584.78
2022-10-29T08:33:57.187Z,101583.06
2022-10-29T08:36:23.604Z,101587.28
2022-10-29T08:38:50.071Z,101574.28
2022-10-29T08:41:22.455Z,101582.47
2022-10-29T08:44:10.818Z,101581.47
2022-10-29T08:46:46.036Z,101582.09
2022-10-29T08:49:17.540Z,101574.69
2022-10-29T08:51:50.731Z,101569.63
2022-10-29T08:54:30.375Z,101561.03
2022-10-29T08:57:03.899Z,101573.91
2022-10-29T08:59:36.549Z,101564.00
2022-10-29T09:02:03.496Z,101554.09
2022-10-29T09:04:34.461Z,101560.34
2022-10-29T09:07:39.406Z,101557.69
2022-10-29T09:10:14.721Z,101565.28
2022-10-29T09:12:50.220Z,101567.03
2022-10-29T09:15:28.966Z,101569.56
2022-10-29T09:18:04.801Z,101574.03
2022-10-29T09:20:51.011Z,101574.56
2022-10-29T09:23:17.377Z,101566.63
2022-10-29T09:25:50.200Z,101557.63
2022-10-29T09:28:32.887Z,101564.19
2022-10-29T09:31:17.344Z,101559.13
2022-10-29T09:33:49.749Z,101566.03
2022-10-29T09:36:22.144Z,101558.50
2022-10-29T09:39:05.086Z,101559.03
2022-10-29T09:41:33.957Z,101555.84
2022-10-29T09:44:24.501Z,101568.13
2022-10-29T09:47:09.669Z,101569.03
2022-10-29T09:49:55.587Z,101567.59
2022-10-29T09:52:30.067Z,101559.59
2022-10-29T09:54:59.320Z,101554.97
2022-10-29T09:57:31.718Z,101553.47
2022-10-29T10:00:05.757Z,101552.13
2022-10-29T10:02:38.446Z,101550.88
2022-10-29T10:05:23.722Z,101538.50
2022-10-29T10:08:14.383Z,101537.47
2022-10-29T10:10:56.570Z,101533.72
2022-10-29T10:13:27.583Z,101533.53
2022-10-29T10:15:57.739Z,101528.78
2022-10-29T10:18:31.671Z,101539.97
2022-10-29T10:21:06.005Z,101535.53
2022-10-29T10:23:49.119Z,101540.03
2022-10-29T10:26:44.219Z,101546.41
2022-10-29T10:29:16.871Z,101550.31
2022-10-29T10:31:48.479Z,101547.25
2022-10-29T10:34:25.586Z,101537.13
2022-10-29T10:36:55.387Z,101533.91
2022-10-29T10:39:31.547Z,101533.81
2022-10-29T10:42:02.288Z,101518.97
2022-10-29T10:44:29.500Z,101517.03
2022-10-29T10:47:00.800Z,101518.53
2022-10-29T10:49:34.791Z,101528.00
2022-10-29T10:52:17.661Z,101528.13
2022-10-29T10:55:10.005Z,101517.16
2022-10-29T10:57:42.334Z,101516.91
2022-10-29T11:00:20.493Z,101508.22
2022-10-29T11:03:15.300Z,101504.50
2022-10-29T11:05:49.087Z,101510.53
2022-10-29T11:08:33.093Z,101498.16
2022-10-29T11:11:10.487Z,101494.41
2022-10-29T11:13:40.668Z,101500.50
2022-10-29T11:16:18.133Z,101496.06
2022-10-29T11:19:00.317Z,101498.94
2022-10-29T11:21:32.661Z,101481.75
2022-10-29T11:24:12.167Z,101488.41
2022-10-29T11:26:48.318Z,101488.50
2022-10-29T11:29:29.244Z,101483.59
2022-10-29T11:32:00.379Z,101484.94
2022-10-29T11:34:48.639Z,101485.38
2022-10-29T11:37:43.076Z,101483.28
2022-10-29T11:40:18.616Z,101483.66
2022-10-29T11:42:45.140Z,101484.31
2022-10-29T11:45:32.535Z,101483.25
2022-10-29T11:48:22.005Z,101478.22
2022-10-29T11:51:23.956Z,101479.91
2022-10-29T11:53:56.271Z,101479.81
2022-10-29T11:56:37.806Z,101482.06
2022-10-29T11:59:11.923Z,101475.91
2022-10-29T12:01:59.971Z,101468.19
2022-10-29T12:04:40.509Z,101470.72
2022-10-29T12:07:29.074Z,101465.28
2022-10-29T12:10:14.842Z,101459.41
2022-10-29T12:13:24.525Z,101462.69
2022-10-29T12:16:18.951Z,101460.84
2022-10-29T12:18:51.539Z,101462.84
2022-10-29T12:21:42.479Z,101458.91
2022-10-29T12:25:03.414Z,101454.00
2022-10-29T12:27:37.379Z,101450.75
2022-10-29T12:30:07.176Z,101454.16
2022-10-29T12:32:42.051Z,101446.66
2022-10-29T12:35:38.947Z,101450.38
2022-10-29T12:38:32.628Z,101432.56
2022-10-29T12:41:08.274Z,101442.16
2022-10-29T12:43:36.576Z,101431.00
2022-10-29T12:46:20.159Z,101424.88
2022-10-29T12:49:09.847Z,101422.38
2022-10-29T12:51:53.444Z,101421.25
2022-10-29T12:54:24.004Z,101419.34
2022-10-29T12:56:50.710Z,101418.00
2022-10-29T12:59:33.158Z,101411.78
2022-10-29T13:02:21.453Z,101405.41
2022-10-29T13:05:09.815Z,101409.81
2022-10-29T13:07:45.435Z,101399.91
2022-10-29T13:10:33.710Z,101406.50
2022-10-29T13:13:15.725Z,101398.88
2022-10-29T13:16:02.837Z,101397.56
2022-10-29T13:18:33.394Z,101388.06
2022-10-29T13:21:02.277Z,101391.94
2022-10-29T13:23:37.909Z,101390.63
2022-10-29T13:26:08.890Z,101381.53
2022-10-29T13:28:35.439Z,101388.50
2022-10-29T13:31:01.977Z,101384.09
2022-10-29T13:33:28.521Z,101379.13
2022-10-29T13:35:56.773Z,101370.94
2022-10-29T13:39:04.414Z,101371.34
2022-10-29T13:41:44.908Z,101369.38
2022-10-29T13:44:24.410Z,101369.03
2022-10-29T13:47:02.971Z,101373.00
2022-10-29T13:49:32.584Z,101367.69
2022-10-29T13:52:16.441Z,101363.78
2022-10-29T13:55:03.108Z,101365.16
2022-10-29T13:57:43.563Z,101359.53
2022-10-29T14:00:13.179Z,101353.69
2022-10-29T14:02:42.603Z,101348.25
2022-10-29T14:05:15.271Z,101349.22
2022-10-29T14:07:52.758Z,101349.50
2022-10-29T14:13:31.137Z,101347.19
2022-10-29T14:16:06.801Z,101336.09
2022-10-29T14:18:34.305Z,101339.03
2022-10-29T14:21:03.826Z,101335.31
2022-10-29T14:23:31.612Z,101332.44
2022-10-29T14:26:00.296Z,101338.34
2022-10-29T14:28:31.737Z,101331.06
2022-10-29T14:31:28.084Z,101339.56
2022-10-29T14:33:59.890Z,101330.00
2022-10-29T14:36:35.341Z,101331.81
2022-10-29T14:39:23.813Z,101321.94
2022-10-29T14:41:54.395Z,101318.81
2022-10-29T14:44:29.368Z,101308.00
2022-10-29T14:47:13.223Z,101325.28
2022-10-29T14:49:45.632Z,101336.19
2022-10-29T14:52:27.452Z,101333.72
2022-10-29T14:54:57.485Z,101323.63
2022-10-29T14:57:28.178Z,101325.72
2022-10-29T15:00:01.302Z,101326.38
2022-10-29T15:02:38.708Z,101326.06
2022-10-29T15:05:40.028Z,101322.41
2022-10-29T15:08:15.309Z,101320.97
2022-10-29T15:10:48.806Z,101313.84
2022-10-29T15:13:27.331Z,101308.66
2022-10-29T15:16:08.205Z,101308.06
2022-10-29T15:18:35.672Z,101301.97
2022-10-29T15:21:03.712Z,101303.47
2022-10-29T15:23:35.289Z,101302.03
2022-10-29T15:26:04.711Z,101299.53
2022-10-29T15:28:39.103Z,101309.81
2022-10-29T15:31:06.351Z,101306.75
2022-10-29T15:33:36.030Z,101304.44
2022-10-29T15:36:04.218Z,101301.16
2022-10-29T15:38:42.497Z,101304.69
2022-10-29T15:41:08.863Z,101302.84
2022-10-29T15:43:55.308Z,101301.91
2022-10-29T15:46:26.411Z,101305.41
2022-10-29T15:48:53.724Z,101301.19
2022-10-29T15:51:26.353Z,101300.09
2022-10-29T15:53:55.760Z,101301.34
2022-10-29T15:56:22.956Z,101311.06
2022-10-29T15:58:53.418Z,101305.88
2022-10-29T16:01:19.979Z,101306.34
2022-10-29T16:03:46.584Z,101304.47
2022-10-29T16:06:15.533Z,101294.09
2022-10-29T16:08:44.400Z,101291.56
2022-10-29T16:11:16.210Z,101299.53
2022-10-29T16:13:42.885Z,101295.59
2022-10-29T16:16:15.940Z,101296.22
2022-10-29T16:18:42.391Z,101300.88
2022-10-29T16:21:11.863Z,101300.84
2022-10-29T16:23:38.603Z,101299.81
2022-10-29T16:26:05.181Z,101302.00
2022-10-29T16:28:31.678Z,101305.44
2022-10-29T16:30:59.532Z,101305.09
2022-10-29T16:33:26.708Z,101303.31
2022-10-29T16:35:53.126Z,101303.59
2022-10-29T16:38:19.582Z,101309.63
2022-10-29T16:40:46.053Z,101303.78
2022-10-29T16:43:12.541Z,101300.69
2022-10-29T16:45:41.448Z,101302.41
2022-10-29T16:48:07.890Z,101296.56
2022-10-29T16:50:34.482Z,101291.06
2022-10-29T16:53:06.699Z,101289.41
2022-10-29T16:55:35.957Z,101284.59
2022-10-29T16:58:02.416Z,101296.75
2022-10-29T17:00:32.940Z,101288.00
2022-10-29T17:03:03.586Z,101287.81
2022-10-29T17:05:37.885Z,101285.56
2022-10-29T17:08:04.846Z,101282.09
2022-10-29T17:10:31.454Z,101293.91
2022-10-29T17:12:59.493Z,101288.22
2022-10-29T17:15:26.507Z,101285.97
2022-10-29T17:17:52.928Z,101285.88
2022-10-29T17:20:19.865Z,101287.78
2022-10-29T17:22:46.341Z,101284.97
2022-10-29T17:25:12.949Z,101282.59
2022-10-29T17:27:40.938Z,101290.25
2022-10-29T17:30:09.070Z,101292.72
2022-10-29T17:32:35.557Z,101284.06
2022-10-29T17:35:02.074Z,101283.81
2022-10-29T17:37:28.946Z,101283.97
2022-10-29T17:39:55.448Z,101287.22
2022-10-29T17:42:21.914Z,101279.84
2022-10-29T17:44:48.384Z,101274.75
2022-10-29T17:47:15.650Z,101282.38
2022-10-29T17:49:42.114Z,101276.44
2022-10-29T17:52:08.557Z,101279.03
2022-10-29T17:54:35.377Z,101279.16
2022-10-29T17:57:02.041Z,101281.19
2022-10-29T17:59:28.531Z,101283.09
2022-10-29T18:01:55.096Z,101292.00
2022-10-29T18:04:21.608Z,101280.53
2022-10-29T18:06:48.087Z,101283.34
2022-10-29T18:09:17.181Z,101281.88
2022-10-29T18:11:48.609Z,101284.69
2022-10-29T18:14:15.062Z,101282.91
2022-10-29T18:16:41.570Z,101274.59
2022-10-29T18:19:08.021Z,101276.75
2022-10-29T18:21:34.400Z,101275.41
2022-10-29T18:24:00.960Z,101273.28
2022-10-29T18:26:33.031Z,101279.56
2022-10-29T18:29:01.822Z,101282.16
2022-10-29T18:31:30.603Z,101282.00
2022-10-29T18:33:59.187Z,101282.56
2022-10-29T18:36:26.261Z,101285.91
2022-10-29T18:38:55.168Z,101274.09
2022-10-29T18:41:22.597Z,101273.88
2022-10-29T18:43:50.414Z,101272.41
2022-10-29T18:46:18.273Z,101270.16
2022-10-29T18:48:47.239Z,101259.47
2022-10-29T18:51:18.045Z,101257.22
2022-10-29T18:53:45.891Z,101247.25
2022-10-29T18:56:15.080Z,101245.66
2022-10-29T18:58:42.478Z,101262.16
2022-10-29T19:01:17.024Z,101257.44
2022-10-29T19:03:48.252Z,101258.31
2022-10-29T19:06:16.038Z,101254.84
2022-10-29T19:08:44.191Z,101246.28
2022-10-29T19:11:14.353Z,101247.59
2022-10-29T19:13:41.890Z,101240.03
2022-10-29T19:16:13.539Z,101249.03
2022-10-29T19:18:46.227Z,101258.56
2022-10-29T19:21:16.305Z,101253.75
2022-10-29T19:23:43.884Z,101251.31
2022-10-29T19:26:13.772Z,101247.63
2022-10-29T19:28:41.198Z,101246.47
2022-10-29T19:31:10.515Z,101263.09
2022-10-29T19:33:37.679Z,101250.59
2022-10-29T19:36:05.754Z,101256.34
2022-10-29T19:38:32.378Z,101259.34
2022-10-29T19:40:59.520Z,101255.06
2022-10-29T19:43:27.057Z,101250.47
2022-10-29T19:45:53.452Z,101259.09
2022-10-29T19:48:19.985Z,101253.81
2022-10-29T19:50:53.750Z,101264.91
2022-10-29T19:53:20.226Z,101272.91
2022-10-29T19:55:50.281Z,101267.81
2022-10-29T19:58:17.648Z,101255.47
2022-10-29T20:00:44.564Z,101262.63
2022-10-29T20:03:11.838Z,101264.31
2022-10-29T20:05:39.431Z,101254.78
2022-10-29T20:08:08.944Z,101262.16
2022-10-29T20:10:38.155Z,101271.19
2022-10-29T20:13:04.878Z,101265.41
2022-10-29T20:15:31.868Z,101273.38
2022-10-29T20:17:58.535Z,101272.94
2022-10-29T20:20:25.501Z,101265.78
2022-10-29T20:22:52.340Z,101272.19
2022-10-29T20:25:23.959Z,101269.00
2022-10-29T20:27:50.827Z,101270.25
2022-10-29T20:30:17.475Z,101261.91
2022-10-29T20:32:44.052Z,101265.53
2022-10-29T20:35:10.450Z,101267.44
2022-10-29T20:37:36.855Z,101269.44
2022-10-29T20:40:03.869Z,101265.84
2022-10-29T20:42:30.259Z,101265.09
2022-10-29T20:44:56.704Z,101259.56
2022-10-29T20:47:23.085Z,101260.44
2022-10-29T20:49:49.606Z,101253.38
2022-10-29T20:52:16.100Z,101259.75
2022-10-29T20:54:42.506Z,101258.97
2022-10-29T20:57:08.913Z,101256.16
2022-10-29T20:59:35.364Z,101265.78
2022-10-29T21:02:01.921Z,101273.59
2022-10-29T21:04:28.425Z,101274.91
2022-10-29T21:06:54.957Z,101277.03
2022-10-29T21:09:22.606Z,101276.66
2022-10-29T21:11:49.045Z,101283.13
2022-10-29T21:14:15.489Z,101279.53
2022-10-29T21:16:41.889Z,101288.84
2022-10-29T21:19:08.346Z,101282.63
2022-10-29T21:21:34.775Z,101283.88
2022-10-29T21:24:01.156Z,101281.16
2022-10-29T21:26:28.447Z,101288.44
2022-10-29T21:28:55.153Z,101277.56
2022-10-29T21:31:22.486Z,101297.84
2022-10-29T21:33:52.983Z,101294.34
2022-10-29T21:36:20.194Z,101298.72
2022-10-29T21:38:47.969Z,101293.94
2022-10-29T21:41:14.931Z,101297.16
2022-10-29T21:43:41.441Z,101296.78
2022-10-29T21:46:08.433Z,101303.63
2022-10-29T21:48:35.271Z,101303.28
2022-10-29T21:51:10.673Z,101302.56
2022-10-29T21:53:37.292Z,101310.25
2022-10-29T21:56:08.540Z,101303.94
2022-10-29T21:58:35.048Z,101306.38
2022-10-29T22:01:06.027Z,101308.84
2022-10-29T22:03:34.234Z,101308.84
2022-10-29T22:06:02.555Z,101302.88
2022-10-29T22:08:29.052Z,101306.84
2022-10-29T22:10:59.634Z,101308.91
2022-10-29T22:13:30.085Z,101309.00
2022-10-29T22:15:56.810Z,101308.63
2022-10-29T22:18:23.992Z,101299.03
2022-10-29T22:20:50.390Z,101299.47
2022-10-29T22:25:51.346Z,101311.00
2022-10-29T22:28:17.898Z,101303.88
2022-10-29T22:30:44.307Z,101305.13
2022-10-29T22:33:10.721Z,101307.63
2022-10-29T22:35:37.165Z,101299.66
2022-10-29T22:38:03.582Z,101301.66
2022-10-29T22:40:30.056Z,101304.13
2022-10-29T22:42:56.693Z,101297.38
2022-10-29T22:45:23.279Z,101301.81
2022-10-29T22:47:49.652Z,101306.28
2022-10-29T22:50:16.130Z,101304.34
2022-10-29T22:52:42.569Z,101308.78
2022-10-29T22:55:09.294Z,101305.19
2022-10-29T22:57:35.674Z,101307.66
2022-10-29T23:00:02.072Z,101310.06
2022-10-29T23:02:28.530Z,101303.63
2022-10-29T23:04:54.936Z,101296.94
2022-10-29T23:07:21.403Z,101307.28
2022-10-29T23:09:47.873Z,101309.38
2022-10-29T23:12:14.360Z,101300.97
2022-10-29T23:14:40.734Z,101300.16
2022-10-29T23:17:07.125Z,101307.00
2022-10-29T23:19:33.539Z,101301.09
2022-10-29T23:22:00.125Z,101301.84
2022-10-29T23:24:26.529Z,101297.13
2022-10-29T23:26:52.908Z,101300.72
2022-10-29T23:29:19.339Z,101296.34
2022-10-29T23:31:54.504Z,101309.09
2022-10-29T23:34:20.895Z,101299.56
2022-10-29T23:36:47.332Z,101298.75
2022-10-29T23:39:13.864Z,101305.16
2022-10-29T23:41:40.346Z,101303.66
2022-10-29T23:44:06.772Z,101296.09
2022-10-29T23:46:33.201Z,101295.81
2022-10-29T23:48:59.615Z,101303.34
2022-10-29T23:51:26.069Z,101302.97
2022-10-29T23:53:56.421Z,101307.88
2022-10-29T23:56:24.350Z,101310.31
2022-10-29T23:58:50.783Z,101306.34
